createdAt,value
2018-08-11T00:01:01.542Z,17.80
2018-08-11T00:03:30.163Z,17.80
2018-08-11T00:05:58.731Z,17.70
2018-08-11T00:08:27.301Z,17.50
2018-08-11T00:10:55.886Z,17.50
2018-08-11T00:13:24.445Z,17.50
2018-08-11T00:15:52.975Z,17.40
2018-08-11T00:18:21.540Z,17.40
2018-08-11T00:20:50.060Z,17.40
2018-08-11T00:23:18.550Z,17.40
2018-08-11T00:25:47.156Z,17.30
2018-08-11T00:28:15.684Z,17.20
2018-08-11T00:30:44.240Z,17.20
2018-08-11T00:33:12.778Z,17.10
2018-08-11T00:35:41.342Z,17.10
2018-08-11T00:38:09.912Z,17.00
2018-08-11T00:40:38.424Z,17.10
2018-08-11T00:43:06.974Z,17.10
2018-08-11T00:45:35.482Z,17.10
2018-08-11T00:48:04.130Z,17.10
2018-08-11T00:50:34.631Z,17.00
2018-08-11T00:53:03.444Z,16.90
2018-08-11T00:55:31.944Z,16.90
2018-08-11T00:58:00.531Z,16.80
2018-08-11T01:00:29.112Z,16.70
2018-08-11T01:02:57.625Z,16.70
2018-08-11T01:05:26.205Z,16.60
2018-08-11T01:07:54.755Z,16.50
2018-08-11T01:10:23.279Z,16.50
2018-08-11T01:12:51.799Z,16.40
2018-08-11T01:15:21.525Z,16.30
2018-08-11T01:17:50.768Z,16.30
2018-08-11T01:20:19.659Z,16.40
2018-08-11T01:22:48.816Z,16.30
2018-08-11T01:25:17.412Z,16.30
2018-08-11T01:27:45.925Z,16.30
2018-08-11T01:30:18.375Z,16.30
2018-08-11T01:32:46.915Z,16.40
2018-08-11T01:35:15.465Z,16.40
2018-08-11T01:37:44.896Z,16.40
2018-08-11T01:40:14.576Z,16.40
2018-08-11T01:42:44.303Z,16.40
2018-08-11T01:45:13.687Z,16.50
2018-08-11T01:47:42.569Z,16.50
2018-08-11T01:50:12.518Z,16.50
2018-08-11T01:52:42.266Z,16.40
2018-08-11T01:55:12.368Z,16.40
2018-08-11T01:57:41.246Z,16.30
2018-08-11T02:00:11.896Z,16.30
2018-08-11T02:02:40.766Z,16.20
2018-08-11T02:05:10.248Z,16.10
2018-08-11T02:07:39.882Z,16.10
2018-08-11T02:10:13.400Z,16.10
2018-08-11T02:12:42.024Z,16.10
2018-08-11T02:15:12.106Z,16.10
2018-08-11T02:17:40.704Z,16.00
2018-08-11T02:20:13.002Z,16.00
2018-08-11T02:22:42.568Z,16.00
2018-08-11T02:25:11.185Z,15.90
2018-08-11T02:27:39.969Z,15.80
2018-08-11T02:30:11.736Z,15.80
2018-08-11T02:32:40.437Z,15.70
2018-08-11T02:35:10.088Z,15.70
2018-08-11T02:37:38.944Z,15.60
2018-08-11T02:40:09.214Z,15.60
2018-08-11T02:42:38.023Z,15.60
2018-08-11T02:45:07.494Z,15.60
2018-08-11T02:47:36.040Z,15.50
2018-08-11T02:50:06.336Z,15.50
2018-08-11T02:52:34.863Z,15.50
2018-08-11T02:55:03.469Z,15.50
2018-08-11T02:57:31.956Z,15.50
2018-08-11T03:00:00.507Z,15.50
2018-08-11T03:02:29.081Z,15.40
2018-08-11T03:04:57.551Z,15.40
2018-08-11T03:07:26.086Z,15.40
2018-08-11T03:09:54.615Z,15.30
2018-08-11T03:12:23.115Z,15.30
2018-08-11T03:14:51.658Z,15.20
2018-08-11T03:17:20.207Z,15.30
2018-08-11T03:19:48.749Z,15.30
2018-08-11T03:22:17.328Z,15.40
2018-08-11T03:24:45.845Z,15.40
2018-08-11T03:27:14.344Z,15.50
2018-08-11T03:29:42.891Z,15.50
2018-08-11T03:32:11.406Z,15.60
2018-08-11T03:34:39.878Z,15.50
2018-08-11T03:37:08.391Z,15.50
2018-08-11T03:39:36.872Z,15.50
2018-08-11T03:42:05.392Z,15.40
2018-08-11T03:44:33.894Z,15.40
2018-08-11T03:47:02.397Z,15.40
2018-08-11T03:49:30.904Z,15.50
2018-08-11T03:51:59.398Z,15.50
2018-08-11T03:54:27.917Z,15.60
2018-08-11T03:56:56.419Z,15.50
2018-08-11T03:59:24.954Z,15.50
2018-08-11T04:01:53.496Z,15.60
2018-08-11T04:04:22.014Z,15.50
2018-08-11T04:06:50.516Z,15.50
2018-08-11T04:09:19.008Z,15.50
2018-08-11T04:11:47.525Z,15.40
2018-08-11T04:14:16.024Z,15.40
2018-08-11T04:16:44.540Z,15.30
2018-08-11T04:19:13.118Z,15.40
2018-08-11T04:21:41.716Z,15.40
2018-08-11T04:24:10.742Z,15.50
2018-08-11T04:26:39.558Z,15.50
2018-08-11T04:29:08.583Z,15.50
2018-08-11T04:31:37.332Z,15.50
2018-08-11T04:34:06.041Z,15.50
2018-08-11T04:36:34.767Z,15.50
2018-08-11T04:39:03.941Z,15.50
2018-08-11T04:41:32.450Z,15.50
2018-08-11T04:44:03.427Z,15.50
2018-08-11T04:46:31.937Z,15.40
2018-08-11T04:49:00.445Z,15.40
2018-08-11T04:51:28.999Z,15.40
2018-08-11T04:53:57.519Z,15.40
2018-08-11T04:56:26.033Z,15.50
2018-08-11T04:58:54.575Z,15.50
2018-08-11T05:01:23.127Z,15.50
2018-08-11T05:03:51.895Z,15.50
2018-08-11T05:06:20.429Z,15.50
2018-08-11T05:08:48.909Z,15.60
2018-08-11T05:11:17.403Z,15.60
2018-08-11T05:13:45.919Z,15.70
2018-08-11T05:16:14.413Z,15.70
2018-08-11T05:18:42.928Z,15.80
2018-08-11T05:21:11.474Z,15.80
2018-08-11T05:23:39.981Z,15.80
2018-08-11T05:26:08.572Z,15.80
2018-08-11T05:28:37.108Z,15.80
2018-08-11T05:31:05.619Z,15.70
2018-08-11T05:33:34.164Z,15.70
2018-08-11T05:36:02.702Z,15.80
2018-08-11T05:38:31.272Z,15.80
2018-08-11T05:40:59.778Z,15.80
2018-08-11T05:43:28.356Z,15.90
2018-08-11T05:45:56.896Z,15.90
2018-08-11T05:48:25.426Z,15.90
2018-08-11T05:50:53.976Z,15.90
2018-08-11T05:53:22.492Z,15.90
2018-08-11T05:55:50.983Z,15.90
2018-08-11T05:58:19.464Z,16.00
2018-08-11T06:00:48.151Z,16.00
2018-08-11T06:03:16.687Z,16.10
2018-08-11T06:05:45.213Z,16.10
2018-08-11T06:08:13.747Z,16.10
2018-08-11T06:10:42.257Z,16.10
2018-08-11T06:13:11.479Z,16.10
2018-08-11T06:15:39.995Z,16.20
2018-08-11T06:18:08.557Z,16.20
2018-08-11T06:20:37.091Z,16.30
2018-08-11T06:23:05.775Z,16.40
2018-08-11T06:25:34.323Z,16.60
2018-08-11T06:28:02.888Z,16.90
2018-08-11T06:30:31.423Z,17.00
2018-08-11T06:33:00.609Z,17.10
2018-08-11T06:35:29.162Z,17.30
2018-08-11T06:37:57.682Z,17.40
2018-08-11T06:40:26.236Z,17.40
2018-08-11T06:42:54.722Z,17.40
2018-08-11T06:45:23.352Z,17.60
2018-08-11T06:47:51.919Z,17.80
2018-08-11T06:50:20.487Z,18.00
2018-08-11T06:52:49.016Z,18.20
2018-08-11T06:55:17.570Z,18.40
2018-08-11T06:57:46.127Z,18.60
2018-08-11T07:00:14.667Z,18.90
2018-08-11T07:02:43.198Z,19.30
2018-08-11T07:05:11.756Z,19.40
2018-08-11T07:07:40.281Z,19.30
2018-08-11T07:10:08.857Z,19.20
2018-08-11T07:12:37.510Z,19.20
2018-08-11T07:15:06.662Z,19.10
2018-08-11T07:17:35.158Z,19.10
2018-08-11T07:20:03.843Z,19.10
2018-08-11T07:22:32.346Z,19.20
2018-08-11T07:25:00.869Z,19.00
2018-08-11T07:27:29.429Z,18.90
2018-08-11T07:29:57.911Z,18.90
2018-08-11T07:32:26.445Z,19.20
2018-08-11T07:34:54.965Z,19.40
2018-08-11T07:37:23.513Z,19.60
2018-08-11T07:39:52.041Z,19.70
2018-08-11T07:42:20.585Z,19.80
2018-08-11T07:44:49.143Z,20.00
2018-08-11T07:47:17.713Z,20.00
2018-08-11T07:49:46.237Z,20.10
2018-08-11T07:52:14.759Z,20.20
2018-08-11T07:54:43.282Z,20.20
2018-08-11T07:57:11.850Z,20.30
2018-08-11T07:59:40.392Z,20.30
2018-08-11T08:02:09.053Z,20.40
2018-08-11T08:04:37.624Z,20.40
2018-08-11T08:07:06.242Z,20.40
2018-08-11T08:09:34.818Z,20.50
2018-08-11T08:12:03.427Z,20.50
2018-08-11T08:14:32.014Z,20.60
2018-08-11T08:17:00.582Z,20.80
2018-08-11T08:19:29.166Z,20.90
2018-08-11T08:21:57.732Z,21.10
2018-08-11T08:24:26.318Z,21.20
2018-08-11T08:26:54.906Z,21.00
2018-08-11T08:29:23.482Z,21.20
2018-08-11T08:31:52.012Z,21.50
2018-08-11T08:34:20.544Z,21.70
2018-08-11T08:36:49.074Z,21.70
2018-08-11T08:39:17.587Z,21.70
2018-08-11T08:41:46.131Z,21.60
2018-08-11T08:44:14.721Z,21.70
2018-08-11T08:46:43.316Z,21.70
2018-08-11T08:49:11.864Z,21.90
2018-08-11T08:51:40.418Z,22.10
2018-08-11T08:54:09.034Z,22.20
2018-08-11T08:56:37.552Z,22.30
2018-08-11T08:59:06.139Z,22.40
2018-08-11T09:01:34.887Z,22.70
2018-08-11T09:04:03.779Z,22.60
2018-08-11T09:06:32.367Z,22.50
2018-08-11T09:09:01.080Z,22.50
2018-08-11T09:11:29.604Z,22.70
2018-08-11T09:13:58.205Z,23.00
2018-08-11T09:16:26.803Z,23.20
2018-08-11T09:18:55.333Z,23.30
2018-08-11T09:21:23.904Z,23.30
2018-08-11T09:23:52.457Z,23.20
2018-08-11T09:26:21.065Z,23.00
2018-08-11T09:28:49.611Z,23.10
2018-08-11T09:31:18.163Z,23.30
2018-08-11T09:33:46.727Z,23.50
2018-08-11T09:36:15.335Z,23.60
2018-08-11T09:38:43.878Z,23.70
2018-08-11T09:41:12.410Z,23.40
2018-08-11T09:43:41.011Z,23.20
2018-08-11T09:46:09.648Z,23.20
2018-08-11T09:48:38.145Z,23.10
2018-08-11T09:51:06.739Z,22.80
2018-08-11T09:53:35.310Z,22.70
2018-08-11T09:56:03.882Z,22.60
2018-08-11T09:58:32.446Z,22.50
2018-08-11T10:01:06.220Z,22.60
2018-08-11T10:03:34.782Z,22.70
2018-08-11T10:06:03.334Z,22.70
2018-08-11T10:08:31.864Z,22.70
2018-08-11T10:11:00.389Z,22.80
2018-08-11T10:13:28.944Z,23.00
2018-08-11T10:15:57.493Z,23.00
2018-08-11T10:18:26.079Z,23.00
2018-08-11T10:20:54.623Z,23.00
2018-08-11T10:23:23.222Z,23.20
2018-08-11T10:25:51.797Z,23.40
2018-08-11T10:28:20.332Z,23.30
2018-08-11T10:30:48.864Z,23.50
2018-08-11T10:33:17.386Z,23.50
2018-08-11T10:35:45.929Z,23.40
2018-08-11T10:38:14.466Z,23.50
2018-08-11T10:40:42.993Z,23.40
2018-08-11T10:43:11.549Z,23.50
2018-08-11T10:45:40.104Z,23.40
2018-08-11T10:48:08.679Z,23.50
2018-08-11T10:50:37.232Z,23.30
2018-08-11T10:53:05.869Z,23.20
2018-08-11T10:55:34.448Z,23.20
2018-08-11T10:58:03.019Z,23.20
2018-08-11T11:00:31.569Z,23.20
2018-08-11T11:03:00.164Z,23.30
2018-08-11T11:05:28.761Z,23.50
2018-08-11T11:07:57.302Z,23.70
2018-08-11T11:10:25.857Z,23.90
2018-08-11T11:12:54.383Z,24.00
2018-08-11T11:15:22.989Z,23.90
2018-08-11T11:17:51.548Z,23.90
2018-08-11T11:20:20.103Z,23.90
2018-08-11T11:22:48.708Z,24.10
2018-08-11T11:25:17.244Z,24.20
2018-08-11T11:27:45.773Z,24.50
2018-08-11T11:30:14.320Z,24.40
2018-08-11T11:32:42.940Z,24.40
2018-08-11T11:35:11.534Z,24.60
2018-08-11T11:37:40.130Z,24.70
2018-08-11T11:40:08.695Z,24.80
2018-08-11T11:42:37.244Z,24.60
2018-08-11T11:45:05.975Z,24.50
2018-08-11T11:47:34.526Z,24.50
2018-08-11T11:50:03.131Z,24.60
2018-08-11T11:52:31.698Z,24.60
2018-08-11T11:55:00.247Z,24.50
2018-08-11T11:57:28.799Z,24.70
2018-08-11T11:59:57.343Z,25.00
2018-08-11T12:02:25.932Z,25.20
2018-08-11T12:04:54.501Z,25.30
2018-08-11T12:07:23.090Z,25.40
2018-08-11T12:09:51.684Z,25.40
2018-08-11T12:12:20.252Z,25.50
2018-08-11T12:14:48.817Z,25.50
2018-08-11T12:17:17.354Z,25.50
2018-08-11T12:19:46.085Z,25.70
2018-08-11T12:22:14.699Z,25.90
2018-08-11T12:24:43.251Z,26.00
2018-08-11T12:27:11.813Z,26.10
2018-08-11T12:29:40.365Z,26.00
2018-08-11T12:32:09.009Z,25.80
2018-08-11T12:34:37.589Z,25.50
2018-08-11T12:37:06.330Z,25.40
2018-08-11T12:39:34.892Z,25.20
2018-08-11T12:42:03.549Z,25.00
2018-08-11T12:44:32.146Z,25.30
2018-08-11T12:47:00.734Z,25.60
2018-08-11T12:49:29.333Z,25.60
2018-08-11T12:51:57.999Z,25.80
2018-08-11T12:54:26.698Z,25.50
2018-08-11T12:56:55.316Z,25.30
2018-08-11T12:59:23.867Z,25.30
2018-08-11T13:01:52.527Z,25.40
2018-08-11T13:04:21.075Z,25.70
2018-08-11T13:06:49.729Z,26.00
2018-08-11T13:09:18.257Z,26.00
2018-08-11T13:11:46.780Z,25.90
2018-08-11T13:14:15.309Z,26.10
2018-08-11T13:16:43.878Z,26.20
2018-08-11T13:19:12.425Z,26.40
2018-08-11T13:21:40.968Z,26.50
2018-08-11T13:24:09.582Z,26.70
2018-08-11T13:26:38.185Z,26.60
2018-08-11T13:29:06.722Z,26.70
2018-08-11T13:31:35.287Z,26.90
2018-08-11T13:34:03.905Z,27.00
2018-08-11T13:36:32.489Z,27.10
2018-08-11T13:39:01.047Z,27.00
2018-08-11T13:41:40.648Z,27.10
2018-08-11T13:44:09.176Z,27.20
2018-08-11T13:46:38.334Z,27.30
2018-08-11T13:49:07.054Z,27.20
2018-08-11T13:51:35.938Z,27.30
2018-08-11T13:54:05.116Z,27.00
2018-08-11T13:56:33.773Z,26.70
2018-08-11T13:59:02.399Z,26.80
2018-08-11T14:01:30.939Z,27.00
2018-08-11T14:03:59.496Z,27.10
2018-08-11T14:06:28.061Z,27.20
2018-08-11T14:08:56.568Z,27.30
2018-08-11T14:11:25.125Z,27.50
2018-08-11T14:13:53.767Z,27.70
2018-08-11T14:16:22.273Z,27.60
2018-08-11T14:18:50.807Z,27.80
2018-08-11T14:21:19.419Z,28.00
2018-08-11T14:23:48.017Z,28.10
2018-08-11T14:26:16.555Z,28.00
2018-08-11T14:28:45.118Z,28.10
2018-08-11T14:31:13.663Z,28.30
2018-08-11T14:33:42.210Z,28.60
2018-08-11T14:36:10.758Z,28.60
2018-08-11T14:38:39.347Z,28.30
2018-08-11T14:41:07.950Z,28.30
2018-08-11T14:43:36.480Z,28.50
2018-08-11T14:46:05.122Z,28.50
2018-08-11T14:48:33.712Z,28.60
2018-08-11T14:51:02.237Z,28.90
2018-08-11T14:53:30.838Z,28.40
2018-08-11T14:55:59.372Z,28.80
2018-08-11T14:58:27.938Z,28.80
2018-08-11T15:00:56.471Z,28.70
2018-08-11T15:03:25.013Z,28.10
2018-08-11T15:05:53.647Z,27.60
2018-08-11T15:08:22.198Z,27.10
2018-08-11T15:10:50.758Z,26.40
2018-08-11T15:13:19.319Z,26.00
2018-08-11T15:15:47.966Z,25.50
2018-08-11T15:18:16.549Z,25.50
2018-08-11T15:20:45.115Z,25.40
2018-08-11T15:23:13.689Z,25.30
2018-08-11T15:25:42.231Z,25.10
2018-08-11T15:28:10.791Z,24.80
2018-08-11T15:30:39.355Z,24.70
2018-08-11T15:33:07.900Z,24.60
2018-08-11T15:35:36.479Z,24.40
2018-08-11T15:38:05.068Z,24.40
2018-08-11T15:40:33.603Z,24.20
2018-08-11T15:43:02.147Z,24.10
2018-08-11T15:45:30.753Z,24.00
2018-08-11T15:47:59.345Z,23.90
2018-08-11T15:50:27.935Z,23.80
2018-08-11T15:52:56.511Z,23.90
2018-08-11T15:55:25.037Z,24.00
2018-08-11T15:57:53.623Z,24.10
2018-08-11T16:00:22.183Z,24.10
2018-08-11T16:02:50.741Z,24.20
2018-08-11T16:05:19.291Z,24.20
2018-08-11T16:07:47.831Z,24.20
2018-08-11T16:10:16.382Z,24.20
2018-08-11T16:12:44.945Z,24.30
2018-08-11T16:15:13.513Z,24.30
2018-08-11T16:17:42.040Z,24.30
2018-08-11T16:20:10.574Z,24.20
2018-08-11T16:22:39.216Z,24.10
2018-08-11T16:25:07.850Z,24.00
2018-08-11T16:27:36.451Z,24.00
2018-08-11T16:30:06.988Z,24.00
2018-08-11T16:32:35.512Z,23.90
2018-08-11T16:35:04.145Z,23.90
2018-08-11T16:37:32.739Z,23.90
2018-08-11T16:40:01.284Z,23.90
2018-08-11T16:42:29.820Z,23.90
2018-08-11T16:44:58.434Z,23.80
2018-08-11T16:47:26.970Z,23.70
2018-08-11T16:49:55.530Z,23.70
2018-08-11T16:52:24.131Z,23.70
2018-08-11T16:54:52.685Z,23.80
2018-08-11T16:57:21.409Z,23.80
2018-08-11T16:59:49.985Z,23.80
2018-08-11T17:02:18.514Z,23.80
2018-08-11T17:04:47.204Z,23.80
2018-08-11T17:07:15.777Z,23.80
2018-08-11T17:09:44.312Z,23.70
2018-08-11T17:12:12.937Z,23.60
2018-08-11T17:14:41.663Z,23.50
2018-08-11T17:17:10.175Z,23.60
2018-08-11T17:19:38.775Z,23.50
2018-08-11T17:22:07.391Z,23.40
2018-08-11T17:24:35.966Z,23.40
2018-08-11T17:27:04.691Z,23.40
2018-08-11T17:29:33.137Z,23.30
2018-08-11T17:32:01.719Z,23.30
2018-08-11T17:34:30.259Z,23.20
2018-08-11T17:36:58.764Z,23.20
2018-08-11T17:39:27.297Z,23.20
2018-08-11T17:41:55.819Z,23.20
2018-08-11T17:44:24.405Z,23.10
2018-08-11T17:46:53.009Z,23.10
2018-08-11T17:49:21.517Z,23.00
2018-08-11T17:51:50.050Z,22.90
2018-08-11T17:54:18.588Z,22.90
2018-08-11T17:56:47.142Z,22.80
2018-08-11T17:59:15.684Z,22.80
2018-08-11T18:01:44.256Z,22.70
2018-08-11T18:04:12.794Z,22.70
2018-08-11T18:06:41.332Z,22.70
2018-08-11T18:09:11.321Z,22.70
2018-08-11T18:11:40.300Z,22.60
2018-08-11T18:14:08.971Z,22.60
2018-08-11T18:16:37.548Z,22.60
2018-08-11T18:19:06.129Z,22.60
2018-08-11T18:21:34.693Z,22.60
2018-08-11T18:24:03.284Z,22.60
2018-08-11T18:26:31.862Z,22.70
2018-08-11T18:29:00.400Z,22.60
2018-08-11T18:31:29.006Z,22.60
2018-08-11T18:33:57.489Z,22.60
2018-08-11T18:36:26.000Z,22.60
2018-08-11T18:38:54.573Z,22.50
2018-08-11T18:41:23.102Z,22.50
2018-08-11T18:43:51.650Z,22.40
2018-08-11T18:46:20.173Z,22.40
2018-08-11T18:48:48.700Z,22.30
2018-08-11T18:51:17.240Z,22.30
2018-08-11T18:53:45.846Z,22.20
2018-08-11T18:56:14.420Z,22.20
2018-08-11T18:58:42.984Z,22.10
2018-08-11T19:01:11.515Z,22.10
2018-08-11T19:03:40.071Z,22.10
2018-08-11T19:06:08.703Z,22.10
2018-08-11T19:08:37.256Z,22.00
2018-08-11T19:11:05.828Z,21.90
2018-08-11T19:13:34.367Z,21.80
2018-08-11T19:16:02.916Z,21.70
2018-08-11T19:18:31.470Z,21.60
2018-08-11T19:21:00.020Z,21.50
2018-08-11T19:23:28.602Z,21.50
2018-08-11T19:25:57.330Z,21.30
2018-08-11T19:28:25.795Z,21.20
2018-08-11T19:30:54.333Z,21.10
2018-08-11T19:33:22.889Z,21.10
2018-08-11T19:35:51.426Z,21.00
2018-08-11T19:38:20.003Z,21.00
2018-08-11T19:40:48.608Z,21.00
2018-08-11T19:43:17.145Z,20.90
2018-08-11T19:45:45.801Z,20.90
2018-08-11T19:48:14.368Z,20.80
2018-08-11T19:50:43.774Z,20.80
2018-08-11T19:53:12.396Z,20.70
2018-08-11T19:55:41.037Z,20.60
2018-08-11T19:58:09.573Z,20.50
2018-08-11T20:00:38.138Z,20.40
2018-08-11T20:03:06.733Z,20.30
2018-08-11T20:05:35.309Z,20.20
2018-08-11T20:08:03.868Z,20.10
2018-08-11T20:10:32.478Z,20.00
2018-08-11T20:13:01.010Z,19.90
2018-08-11T20:15:29.528Z,19.80
2018-08-11T20:17:58.107Z,19.70
2018-08-11T20:20:26.652Z,19.60
2018-08-11T20:22:55.191Z,19.60
2018-08-11T20:25:23.980Z,19.60
2018-08-11T20:27:52.341Z,19.50
2018-08-11T20:30:20.842Z,19.40
2018-08-11T20:32:49.372Z,19.40
2018-08-11T20:35:17.954Z,19.40
2018-08-11T20:37:46.557Z,19.40
2018-08-11T20:40:15.144Z,19.40
2018-08-11T20:42:43.737Z,19.40
2018-08-11T20:45:12.301Z,19.40
2018-08-11T20:47:40.833Z,19.30
2018-08-11T20:50:09.841Z,19.20
2018-08-11T20:52:38.381Z,19.10
2018-08-11T20:55:07.888Z,19.10
2018-08-11T20:57:36.487Z,19.10
2018-08-11T21:00:08.168Z,19.00
2018-08-11T21:02:36.884Z,18.90
2018-08-11T21:05:07.660Z,18.80
2018-08-11T21:07:36.588Z,18.80
2018-08-11T21:10:07.009Z,18.70
2018-08-11T21:12:35.559Z,18.70
2018-08-11T21:15:05.073Z,18.80
2018-08-11T21:17:33.658Z,18.80
2018-08-11T21:20:02.233Z,18.80
2018-08-11T21:22:30.777Z,18.80
2018-08-11T21:24:59.368Z,18.70
2018-08-11T21:27:27.937Z,18.60
2018-08-11T21:29:56.480Z,18.60
2018-08-11T21:32:25.055Z,18.60
2018-08-11T21:34:53.653Z,18.60
2018-08-11T21:37:22.245Z,18.50
2018-08-11T21:39:50.776Z,18.40
2018-08-11T21:42:19.434Z,18.30
2018-08-11T21:44:47.991Z,18.30
2018-08-11T21:47:16.508Z,18.20
2018-08-11T21:49:45.046Z,18.10
2018-08-11T21:52:13.613Z,18.10
2018-08-11T21:54:42.167Z,18.10
2018-08-11T21:57:10.717Z,18.20
2018-08-11T21:59:39.226Z,18.20
2018-08-11T22:02:07.793Z,18.10
2018-08-11T22:04:36.415Z,18.10
2018-08-11T22:07:06.269Z,18.20
2018-08-11T22:09:34.854Z,18.20
2018-08-11T22:12:03.974Z,18.20
2018-08-11T22:14:32.717Z,18.20
2018-08-11T22:17:01.660Z,18.20
2018-08-11T22:19:30.195Z,18.00
2018-08-11T22:21:58.731Z,17.90
2018-08-11T22:24:27.276Z,17.80
2018-08-11T22:26:55.835Z,17.80
2018-08-11T22:29:24.385Z,17.80
2018-08-11T22:31:52.946Z,17.70
2018-08-11T22:34:21.505Z,17.70
2018-08-11T22:36:50.083Z,17.60
2018-08-11T22:39:18.668Z,17.50
2018-08-11T22:41:47.259Z,17.50
2018-08-11T22:44:15.814Z,17.50
2018-08-11T22:46:44.343Z,17.50
2018-08-11T22:49:12.900Z,17.40
2018-08-11T22:51:41.477Z,17.40
2018-08-11T22:54:10.020Z,17.40
2018-08-11T22:56:38.561Z,17.40
2018-08-11T22:59:07.144Z,17.40
2018-08-11T23:01:35.685Z,17.40
2018-08-11T23:04:04.250Z,17.50
2018-08-11T23:06:32.825Z,17.40
2018-08-11T23:09:01.340Z,17.30
2018-08-11T23:11:29.944Z,17.20
2018-08-11T23:13:58.496Z,17.20
2018-08-11T23:16:27.072Z,17.20
2018-08-11T23:18:55.654Z,17.30
2018-08-11T23:21:24.282Z,17.30
2018-08-11T23:23:52.808Z,17.40
2018-08-11T23:26:21.372Z,17.40
2018-08-11T23:28:49.912Z,17.40
2018-08-11T23:31:18.415Z,17.30
2018-08-11T23:33:46.929Z,17.30
2018-08-11T23:36:15.477Z,17.30
2018-08-11T23:38:43.986Z,17.40
2018-08-11T23:41:12.529Z,17.40
2018-08-11T23:43:41.060Z,17.40
2018-08-11T23:46:09.603Z,17.30
2018-08-11T23:48:38.120Z,17.30
2018-08-11T23:51:06.775Z,17.20
2018-08-11T23:53:35.304Z,17.20
2018-08-11T23:56:03.929Z,17.20
2018-08-11T23:58:32.529Z,17.10
